Price, UT

11:32 PM MDT on September 16, 2014 (GMT -0600)
Carbon County | Change Station
CLOSE
Current Station
Airport
Location: Price,
Elevation: 5955 ft
Nearby Weather Stations

Elev 5955 ft 39.61 °N, 110.75 °W | Updated 39 minutes ago

Mostly Cloudy
Mostly Cloudy
68 °F
Feels Like 68 °F
N
8
Wind Variable Wind from NNE

Today
High -- | Low -- °F
--% Chance of Precip.
Yesterday
High -- | Low -- °F
Precip. -- in
7:05 AM 7:30 PM
Last Quarter, 39% visible
Pressure 29.91 in
Visibility 10.0 miles
Clouds Overcast 12000 ft
Dew Point 35 °F
Humidity 30%
Rainfall 0.00 in
Snow Depth 1 in , 0 in , 0 in
UV 0 out of 12
Pollen 5.40 out of 12
Air Quality Not available.
Flu Activity Not available.
METAR KPUC 170453Z AUTO 03007KT 10SM OVC120 20/02 A3015 RMK AO2 SLP127 T02000017

More Conditions Fewer Conditions

Pressure 29.91 in
Visibility 10.0 miles
Clouds Overcast 12000 ft
Dew Point 35 °F
Humidity 30%
Rainfall 0.00 in
Snow Depth 1 in , 0 in , 0 in
UV 0 out of 12
Pollen 5.40 out of 12
Air Quality Not available.
Flu Activity Not available.
METAR KPUC 170453Z AUTO 03007KT 10SM OVC120 20/02 A3015 RMK AO2 SLP127 T02000017

More Conditions Fewer Conditions

10-Day Weather Forecast

Almanac

Astronomy

Sep. 16, 2014 Rise Set
Actual Time 7:05 AM MDT 7:30 PM MDT
Civil Twilight 6:39 AM MDT 7:57 PM MDT
Nautical Twilight 6:07 AM MDT 8:28 PM MDT
Astronomical Twilight 5:35 AM MDT 9:01 PM MDT
Moon 12:20 AM MDT (9/16) 2:55 PM MDT (9/16)
Length of Visible Light 13h 18m
Length of Day
12h 24m
Tomorrow will be 2m 33s shorter.
Last Quarter, 39% of the Moon is Illuminated
Sep 17
Last Quarter
Sep 24
New
Oct 1
First Quarter
Oct 8
Full
Oct 15
Last Quarter

Yesterday's Extremes

State Highs State Lows

Community

WunderPhotos

Upload Photos

1,753,968 photos uploaded!

Nearby

Snow Depth

Station Depth Elevation
Trial Lake 1 in 9960 ft
Mosby Mountain 0 in 9500 ft
Five Points Lake 0 in 10920 ft
Brown Duck 0 in 10600 ft
Dry Fork 0 in 7160 ft

Earthquake Activity

City Distance Mag. Time & Date
No recent earthquake activity has been reported nearby.
Minimum magnitude displayed is 2.5.

Coastal Water Temperatures

Place Temperature
No Stations Reporting

Nearby Weather Stations